Time;durP1;ratioP1;P1;durP2;ratioP2;P2;SDS_P1;SDS_P2;PMS_P1;PMS_P2;Temp;Humidity;BMP_temperature;BMP_pressure;BME280_temperature;BME280_humidity;BME280_pressure;Samples;Min_cycle;Max_cycle;Signal;HPM_P1;HPM_P2
2023/10/31 00:01:07;;;;;;;0.00;0.00;;;;;;;8.58;92.06;98995.59;4927134;28;20590;-73
2023/10/31 00:03:33;;;;;;;0.10;0.10;;;;;;;8.57;91.75;99007.59;4941896;28;20058;-72
2023/10/31 00:06:00;;;;;;;0.00;0.00;;;;;;;8.56;91.45;99005.97;4942905;28;20580;-72
2023/10/31 00:08:26;;;;;;;;;;;;;;;8.55;91.55;99015.22;4942795;28;20051;-72
2023/10/31 00:10:52;;;;;;;0.00;0.00;;;;;;;8.51;91.84;98999.44;4943596;28;19949;-72
2023/10/31 00:13:18;;;;;;;0.10;0.10;;;;;;;8.51;91.88;99004.06;4943064;28;20526;-72
2023/10/31 00:15:45;;;;;;;0.05;0.05;;;;;;;8.49;91.84;99003.50;4944521;28;20064;-73
2023/10/31 00:18:11;;;;;;;0.10;0.10;;;;;;;8.50;91.94;99007.88;4943309;28;20395;-70
2023/10/31 00:20:37;;;;;;;0.10;0.10;;;;;;;8.49;92.40;99017.13;4925577;29;20043;-72
2023/10/31 00:23:05;;;;;;;0.10;0.10;;;;;;;8.48;92.10;99021.75;4942771;28;20422;-71
2023/10/31 00:25:30;;;;;;;;;;;;;;;8.49;92.26;99022.56;4945131;28;20051;-72
2023/10/31 00:27:56;;;;;;;0.10;0.10;;;;;;;8.47;92.31;99022.84;4944573;28;19926;-73
2023/10/31 00:30:23;;;;;;;0.10;0.10;;;;;;;8.45;92.32;99021.50;4928757;28;20059;-72
2023/10/31 00:32:49;;;;;;;0.10;0.10;;;;;;;8.41;92.47;99034.03;4941190;28;20063;-73
2023/10/31 00:35:16;;;;;;;0.10;0.10;;;;;;;8.38;92.93;99030.00;4941129;28;20411;-70
2023/10/31 00:37:42;;;;;;;0.10;0.10;;;;;;;8.40;93.17;99030.53;4940839;28;20047;-70
2023/10/31 00:40:11;;;;;;;0.10;0.10;;;;;;;8.39;92.97;99037.06;4940132;28;20137;-70
2023/10/31 00:42:37;;;;;;;0.10;0.10;;;;;;;8.42;92.94;99035.66;4939641;28;20138;-70
2023/10/31 00:45:04;;;;;;;0.10;0.10;;;;;;;8.44;92.69;99042.47;4943101;28;20036;-70
2023/10/31 00:47:31;;;;;;;0.10;0.10;;;;;;;8.47;92.62;99046.56;4928309;28;20150;-70
2023/10/31 00:49:57;;;;;;;0.10;0.10;;;;;;;8.47;92.62;99043.84;4943021;28;20143;-73
2023/10/31 00:52:24;;;;;;;0.10;0.10;;;;;;;8.50;92.68;99052.28;4941020;28;20051;-70
2023/10/31 00:54:50;;;;;;;0.10;0.10;;;;;;;8.50;92.53;99049.56;4941002;28;20302;-70
2023/10/31 00:57:18;;;;;;;0.10;0.10;;;;;;;8.49;92.32;99061.53;4939886;28;20500;-72
2023/10/31 00:59:44;;;;;;;;;;;;;;;8.49;92.04;99079.78;4942674;28;20051;-71
2023/10/31 01:02:10;;;;;;;0.10;0.10;;;;;;;8.50;91.20;99065.09;4945745;28;20309;-70
2023/10/31 01:04:37;;;;;;;0.00;0.00;;;;;;;8.51;91.64;99072.19;4938656;28;20051;-70
2023/10/31 01:07:04;;;;;;;0.10;0.10;;;;;;;8.53;91.57;99077.38;4927273;28;20063;-70
2023/10/31 01:09:30;;;;;;;0.10;0.10;;;;;;;8.54;91.19;99077.06;4941017;28;20307;-70
2023/10/31 01:11:56;;;;;;;0.10;0.10;;;;;;;8.50;91.17;99076.00;4951720;28;20062;-69
2023/10/31 01:14:24;;;;;;;0.10;0.10;;;;;;;8.50;91.25;99086.91;4963859;28;20627;-70
2023/10/31 01:16:50;;;;;;;0.10;0.10;;;;;;;8.46;91.91;99093.97;4940392;28;20035;-70
2023/10/31 01:19:16;;;;;;;0.10;0.10;;;;;;;8.43;91.69;99086.34;4936449;28;20062;-70
2023/10/31 01:21:42;;;;;;;0.10;0.10;;;;;;;8.37;92.21;99080.91;4941825;28;20043;-70
2023/10/31 01:24:09;;;;;;;0.10;0.10;;;;;;;8.43;92.05;99092.63;4940142;28;20496;-70
2023/10/31 01:26:36;;;;;;;0.00;0.00;;;;;;;8.46;92.32;99096.69;4939727;28;20071;-70
2023/10/31 01:29:02;;;;;;;0.10;0.10;;;;;;;8.47;92.48;99109.22;4939843;28;20588;-70
2023/10/31 01:31:30;;;;;;;0.10;0.10;;;;;;;8.48;92.67;99102.69;4946973;28;20479;-69
2023/10/31 01:33:56;;;;;;;0.10;0.10;;;;;;;8.49;92.84;99109.75;4941254;28;20047;-70
2023/10/31 01:36:25;;;;;;;0.00;0.00;;;;;;;8.47;92.79;99106.50;4941233;28;20051;-69
2023/10/31 01:38:51;;;;;;;0.10;0.10;;;;;;;8.47;92.40;99111.94;4941207;28;20055;-70
2023/10/31 01:41:17;;;;;;;0.10;0.10;;;;;;;8.47;92.54;99115.47;4941759;28;20039;-68
2023/10/31 01:43:43;;;;;;;0.10;0.10;;;;;;;8.50;92.34;99111.41;4940504;28;20043;-69
2023/10/31 01:46:10;;;;;;;0.10;0.10;;;;;;;8.49;91.95;99124.19;4941370;29;20449;-70
2023/10/31 01:48:38;;;;;;;0.10;0.10;;;;;;;8.47;91.99;99126.38;4942396;28;20146;-70
2023/10/31 01:51:04;;;;;;;;;;;;;;;8.49;92.25;99128.84;4927562;28;20055;-71
2023/10/31 01:53:33;;;;;;;0.10;0.10;;;;;;;8.48;91.80;99130.72;4939714;28;19926;-72
2023/10/31 01:56:01;;;;;;;0.08;0.08;;;;;;;8.48;91.60;99138.91;4944355;28;20059;-68
2023/10/31 01:58:30;;;;;;;0.13;0.10;;;;;;;8.45;91.59;99131.28;4939993;28;20821;-69
2023/10/31 02:00:57;;;;;;;0.10;0.10;;;;;;;8.51;91.63;99138.41;4939255;28;20089;-68
2023/10/31 02:03:24;;;;;;;0.10;0.10;;;;;;;8.50;91.67;99146.84;4939824;28;20058;-69
2023/10/31 02:05:52;;;;;;;0.10;0.10;;;;;;;8.48;91.84;99146.28;4939065;28;20043;-69
2023/10/31 02:08:20;;;;;;;0.10;0.10;;;;;;;8.45;92.02;99150.34;4940798;28;20059;-69
2023/10/31 02:10:46;;;;;;;0.10;0.10;;;;;;;8.43;92.29;99149.81;4940061;28;20425;-69
2023/10/31 02:13:14;;;;;;;0.10;0.10;;;;;;;8.43;92.60;99158.00;4950449;28;20053;-69
2023/10/31 02:15:40;;;;;;;0.10;0.10;;;;;;;8.45;92.71;99165.91;4938181;28;20893;-69
2023/10/31 02:18:07;;;;;;;0.10;0.10;;;;;;;8.48;92.43;99166.16;4942624;28;20094;-69
2023/10/31 02:20:34;;;;;;;0.10;0.10;;;;;;;8.49;92.47;99169.69;4940536;28;20572;-69
2023/10/31 02:23:02;;;;;;;0.10;0.10;;;;;;;8.49;92.20;99177.88;4942096;28;20504;-69
2023/10/31 02:25:29;;;;;;;0.10;0.10;;;;;;;8.48;92.27;99174.31;4938234;28;20415;-71
2023/10/31 02:27:57;;;;;;;0.10;0.10;;;;;;;8.47;92.25;99180.88;4941644;28;20137;-70
2023/10/31 02:30:25;;;;;;;0.10;0.10;;;;;;;8.45;92.71;99177.59;4942814;28;20079;-71
2023/10/31 02:32:52;;;;;;;0.10;0.10;;;;;;;8.37;92.75;99189.88;4942294;28;20043;-72
2023/10/31 02:35:18;;;;;;;0.10;0.10;;;;;;;8.31;92.86;99187.44;4941488;28;20057;-70
2023/10/31 02:37:45;;;;;;;0.10;0.10;;;;;;;8.23;93.36;99189.63;4938920;28;20421;-70
2023/10/31 02:40:14;;;;;;;0.10;0.10;;;;;;;8.18;93.73;99189.63;4944181;28;20117;-69
2023/10/31 02:42:40;;;;;;;0.10;0.10;;;;;;;8.11;94.07;99196.44;4940040;28;20043;-71
2023/10/31 02:45:07;;;;;;;0.10;0.10;;;;;;;8.00;94.63;99204.63;4941698;28;20051;-69
2023/10/31 02:47:34;;;;;;;0.10;0.10;;;;;;;7.95;95.00;99202.72;4938884;28;20047;-71
2023/10/31 02:50:00;;;;;;;0.10;0.10;;;;;;;7.92;95.21;99194.25;4942119;28;20050;-70
2023/10/31 02:52:26;;;;;;;0.10;0.10;;;;;;;7.85;95.70;99199.97;4938262;28;20050;-71
2023/10/31 02:54:52;;;;;;;0.10;0.10;;;;;;;7.77;95.84;99200.53;4944073;28;20054;-69
2023/10/31 02:57:20;;;;;;;0.10;0.10;;;;;;;7.77;96.47;99214.13;4944527;28;20512;-69
2023/10/31 02:59:47;;;;;;;0.10;0.10;;;;;;;7.82;96.48;99207.88;4944806;28;20098;-70
2023/10/31 03:02:14;;;;;;;0.10;0.10;;;;;;;7.80;96.49;99205.44;4951002;28;20057;-69
2023/10/31 03:04:40;;;;;;;0.03;0.03;;;;;;;7.97;96.02;99216.06;4941659;28;20047;-69
2023/10/31 03:07:07;;;;;;;0.10;0.10;;;;;;;8.00;95.96;99217.41;4941393;28;20051;-69
2023/10/31 03:09:34;;;;;;;0.10;0.10;;;;;;;8.14;95.75;99225.88;4945379;28;20527;-69
2023/10/31 03:12:01;;;;;;;0.15;0.10;;;;;;;8.18;95.53;99226.94;4944135;28;20082;-70
2023/10/31 03:14:29;;;;;;;0.10;0.10;;;;;;;8.17;94.72;99233.47;4922523;28;20078;-69
2023/10/31 03:16:55;;;;;;;0.10;0.10;;;;;;;8.10;94.85;99222.88;4945531;28;20043;-72
2023/10/31 03:19:22;;;;;;;0.10;0.10;;;;;;;8.18;94.61;99235.91;4942892;28;20047;-71
2023/10/31 03:21:48;;;;;;;0.10;0.10;;;;;;;8.17;94.65;99237.00;4942519;28;20609;-71
2023/10/31 03:24:15;;;;;;;0.10;0.10;;;;;;;8.18;94.46;99235.13;4943406;28;20051;-72
2023/10/31 03:26:44;;;;;;;0.10;0.10;;;;;;;8.17;94.77;99230.75;4947561;28;20043;-70
2023/10/31 03:29:10;;;;;;;0.10;0.10;;;;;;;8.17;94.70;99228.84;4941331;28;20078;-70
2023/10/31 03:31:40;;;;;;;0.10;0.10;;;;;;;8.19;94.78;99242.19;4941214;28;20075;-70
2023/10/31 03:34:07;;;;;;;0.10;0.10;;;;;;;8.20;94.87;99246.56;4925238;29;20131;-70
2023/10/31 03:36:33;;;;;;;0.10;0.10;;;;;;;8.20;94.66;99244.66;4942032;28;20078;-69
2023/10/31 03:39:00;;;;;;;0.10;0.10;;;;;;;8.16;94.66;99240.81;4941636;28;20101;-70
2023/10/31 03:41:27;;;;;;;0.10;0.10;;;;;;;8.06;94.82;99240.84;4940653;29;20048;-70
2023/10/31 03:43:54;;;;;;;0.10;0.10;;;;;;;7.90;95.21;99248.16;4951345;28;20059;-69
2023/10/31 03:46:21;;;;;;;0.10;0.10;;;;;;;7.75;96.04;99252.50;4941686;28;20136;-69
2023/10/31 03:48:49;;;;;;;0.10;0.10;;;;;;;7.63;96.81;99252.75;4909958;29;20482;-69
2023/10/31 03:51:15;;;;;;;0.10;0.10;;;;;;;7.54;97.56;99261.72;4959218;28;20145;-69
2023/10/31 03:53:41;;;;;;;0.10;0.10;;;;;;;7.45;97.97;99267.66;4946514;28;20165;-69
2023/10/31 03:56:08;;;;;;;0.10;0.10;;;;;;;7.38;98.13;99262.47;4924184;28;20062;-71
2023/10/31 03:58:34;;;;;;;0.10;0.10;;;;;;;7.42;98.76;99265.47;4940222;28;20100;-71
2023/10/31 04:01:00;;;;;;;0.10;0.10;;;;;;;7.47;98.89;99272.84;4944524;28;20140;-71
2023/10/31 04:03:27;;;;;;;0.10;0.10;;;;;;;7.46;98.86;99268.50;4942892;28;20116;-71
2023/10/31 04:05:55;;;;;;;0.10;0.10;;;;;;;7.46;98.96;99274.72;4912877;28;20513;-71
2023/10/31 04:08:21;;;;;;;0.10;0.10;;;;;;;7.47;99.06;99284.53;4949737;28;20051;-69
2023/10/31 04:10:47;;;;;;;0.10;0.10;;;;;;;7.49;99.21;99287.81;4943470;28;20061;-71
2023/10/31 04:13:13;;;;;;;0.10;0.10;;;;;;;7.49;99.39;99287.81;4958552;28;20065;-71
2023/10/31 04:15:39;;;;;;;0.00;0.00;;;;;;;7.52;99.20;99286.44;4943617;28;20043;-69
2023/10/31 04:18:05;;;;;;;0.10;0.10;;;;;;;7.51;99.59;99293.81;4941849;28;20224;-71
2023/10/31 04:20:32;;;;;;;0.00;0.00;;;;;;;7.54;99.62;99299.78;4945013;28;20543;-72
2023/10/31 04:22:59;;;;;;;0.00;0.00;;;;;;;7.60;99.26;99298.72;4942995;28;20150;-72
2023/10/31 04:25:26;;;;;;;;;;;;;;;7.68;98.84;99310.97;4941670;28;20047;-71
2023/10/31 04:27:54;;;;;;;0.00;0.00;;;;;;;7.76;97.86;99305.84;4940941;28;19930;-71
2023/10/31 04:30:21;;;;;;;0.10;0.10;;;;;;;7.82;97.29;99311.31;4942255;28;20081;-71
2023/10/31 04:32:48;;;;;;;0.10;0.10;;;;;;;7.89;96.72;99315.41;4950957;28;20051;-71
2023/10/31 04:35:14;;;;;;;0.10;0.10;;;;;;;7.87;96.92;99308.59;4941264;28;20446;-71
2023/10/31 04:37:40;;;;;;;0.10;0.10;;;;;;;7.85;96.97;99314.28;4937245;28;20055;-69
2023/10/31 04:40:10;;;;;;;0.10;0.10;;;;;;;7.82;97.07;99308.59;4942361;28;20058;-69
2023/10/31 04:42:40;;;;;;;0.10;0.10;;;;;;;7.74;97.13;99310.72;4942494;28;20255;-69
2023/10/31 04:45:07;;;;;;;0.10;0.10;;;;;;;7.63;97.49;99306.34;4940426;28;20047;-72
2023/10/31 04:47:34;;;;;;;0.10;0.10;;;;;;;7.55;98.09;99312.31;4920561;28;20107;-72
2023/10/31 04:50:00;;;;;;;0.10;0.10;;;;;;;7.52;98.40;99314.50;4939551;28;20545;-72
2023/10/31 04:52:27;;;;;;;0.10;0.10;;;;;;;7.50;99.01;99315.81;4941899;28;20059;-70
2023/10/31 04:54:53;;;;;;;0.10;0.10;;;;;;;7.59;99.40;99324.28;4943464;28;20066;-69
2023/10/31 04:57:21;;;;;;;0.10;0.10;;;;;;;7.71;99.39;99338.50;4943726;28;20040;-69
2023/10/31 04:59:47;;;;;;;;;;;;;;;7.86;99.03;99342.34;4939299;28;20589;-70
2023/10/31 05:02:13;;;;;;;0.10;0.10;;;;;;;7.88;98.17;99327.41;4937430;28;20029;-70
2023/10/31 05:04:40;;;;;;;0.10;0.10;;;;;;;8.00;97.70;99348.91;4935135;28;20069;-69
2023/10/31 05:07:07;;;;;;;0.10;0.10;;;;;;;8.06;97.36;99349.75;4938523;28;20128;-70
2023/10/31 05:09:33;;;;;;;0.10;0.10;;;;;;;8.10;97.30;99350.84;4939358;28;20057;-70
2023/10/31 05:12:00;;;;;;;0.10;0.10;;;;;;;8.07;97.28;99343.22;4942742;28;20051;-69
2023/10/31 05:14:27;;;;;;;0.20;0.20;;;;;;;8.17;97.23;99351.38;4940951;28;20050;-70
2023/10/31 05:16:53;;;;;;;;;;;;;;;8.29;96.98;99353.88;4941168;28;20085;-69
2023/10/31 05:19:20;;;;;;;0.10;0.10;;;;;;;8.28;96.43;99354.97;4955114;28;19926;-69
2023/10/31 05:21:46;;;;;;;0.10;0.10;;;;;;;8.26;96.68;99354.41;4940651;28;20047;-70
2023/10/31 05:24:12;;;;;;;0.10;0.10;;;;;;;8.29;96.76;99342.97;4941440;28;20055;-69
2023/10/31 05:26:40;;;;;;;0.10;0.10;;;;;;;8.44;96.50;99350.34;4940419;28;20108;-70
2023/10/31 05:29:06;;;;;;;0.10;0.10;;;;;;;8.62;96.15;99353.63;4940038;28;20750;-70
2023/10/31 05:31:33;;;;;;;0.10;0.10;;;;;;;8.77;95.64;99350.09;4938443;28;20047;-72
2023/10/31 05:33:59;;;;;;;;;;;;;;;8.99;95.30;99365.34;4940023;28;20192;-72
2023/10/31 05:36:27;;;;;;;0.10;0.10;;;;;;;9.02;94.41;99362.06;4942043;28;20463;-69
2023/10/31 05:38:54;;;;;;;0.10;0.10;;;;;;;9.01;93.85;99369.44;4921332;29;20069;-70
2023/10/31 05:41:20;;;;;;;0.10;0.10;;;;;;;9.00;93.38;99375.16;4934670;28;20062;-69
2023/10/31 05:43:46;;;;;;;0.10;0.10;;;;;;;8.98;92.85;99383.63;4939001;28;20475;-69
2023/10/31 05:46:14;;;;;;;0.10;0.10;;;;;;;8.99;92.88;99389.88;4939882;28;20514;-69
2023/10/31 05:48:45;;;;;;;0.10;0.10;;;;;;;8.98;92.53;99393.69;4941525;28;20047;-69
2023/10/31 05:51:12;;;;;;;0.10;0.10;;;;;;;8.97;92.04;99406.50;4935641;28;20043;-68
2023/10/31 05:53:40;;;;;;;0.10;0.10;;;;;;;8.95;91.83;99397.78;4932126;28;20065;-69
2023/10/31 05:56:07;;;;;;;0.15;0.15;;;;;;;8.98;91.48;99401.88;4938615;28;20133;-69
2023/10/31 05:58:33;;;;;;;0.10;0.10;;;;;;;8.94;91.50;99396.97;4938193;28;20058;-69
2023/10/31 06:00:59;;;;;;;0.10;0.10;;;;;;;9.11;91.22;99403.22;4936787;29;20042;-71
2023/10/31 06:03:26;;;;;;;0.10;0.10;;;;;;;9.19;91.02;99416.31;4937758;28;20075;-71
2023/10/31 06:05:53;;;;;;;0.10;0.10;;;;;;;9.21;90.13;99425.03;4933888;28;20035;-69
2023/10/31 06:08:20;;;;;;;;;;;;;;;9.25;89.83;99430.78;4935250;28;20059;-70
2023/10/31 06:10:46;;;;;;;0.10;0.10;;;;;;;9.30;89.35;99433.47;4935837;28;19934;-70
2023/10/31 06:13:12;;;;;;;0.10;0.10;;;;;;;9.31;88.95;99432.38;4935558;28;20588;-70
2023/10/31 06:15:38;;;;;;;0.10;0.10;;;;;;;9.33;88.61;99443.84;4936667;28;20514;-70
2023/10/31 06:18:04;;;;;;;0.10;0.10;;;;;;;9.32;88.46;99450.41;4934139;28;20051;-71
2023/10/31 06:20:31;;;;;;;0.10;0.10;;;;;;;9.33;88.69;99454.75;4939790;28;20528;-71
2023/10/31 06:22:59;;;;;;;0.10;0.10;;;;;;;9.32;88.29;99444.94;4941414;28;20047;-70
2023/10/31 06:25:25;;;;;;;0.10;0.10;;;;;;;9.32;88.38;99445.78;4933281;28;20529;-72
2023/10/31 06:27:51;;;;;;;0.20;0.10;;;;;;;9.35;88.50;99445.22;4947995;28;20039;-72
2023/10/31 06:30:18;;;;;;;0.10;0.10;;;;;;;9.43;88.49;99446.56;4938073;28;20047;-71
2023/10/31 06:32:44;;;;;;;0.10;0.10;;;;;;;9.49;88.84;99447.38;4934706;28;20089;-72
2023/10/31 06:35:10;;;;;;;0.10;0.10;;;;;;;9.44;88.45;99423.63;4942466;29;20135;-72
2023/10/31 06:37:37;;;;;;;0.10;0.10;;;;;;;9.53;88.61;99442.19;4955036;28;20043;-72
2023/10/31 06:40:06;;;;;;;0.10;0.10;;;;;;;9.43;88.58;99424.72;4942424;28;20054;-72
2023/10/31 06:42:32;;;;;;;0.38;0.20;;;;;;;9.62;88.96;99451.44;4958912;28;20524;-71
2023/10/31 06:44:59;;;;;;;0.10;0.10;;;;;;;9.71;88.62;99448.94;4944844;28;20134;-74
2023/10/31 06:47:25;;;;;;;0.10;0.10;;;;;;;9.79;88.34;99454.66;4953095;28;20058;-70
2023/10/31 06:49:51;;;;;;;0.10;0.10;;;;;;;9.80;88.19;99455.47;4944326;28;20044;-70
2023/10/31 06:52:17;;;;;;;0.10;0.10;;;;;;;9.78;87.97;99457.69;4943920;28;20050;-71
2023/10/31 06:54:43;;;;;;;0.10;0.10;;;;;;;9.77;87.95;99459.56;4945626;28;20055;-71
2023/10/31 06:57:11;;;;;;;0.10;0.10;;;;;;;9.72;87.98;99466.97;4945957;28;20047;-70
2023/10/31 06:59:37;;;;;;;0.10;0.10;;;;;;;9.68;88.35;99474.91;4948229;28;20047;-70
2023/10/31 07:02:04;;;;;;;0.15;0.15;;;;;;;9.65;88.57;99473.53;4945861;28;20047;-70
2023/10/31 07:04:30;;;;;;;0.20;0.20;;;;;;;9.64;88.76;99468.34;4946719;28;20088;-70
2023/10/31 07:06:57;;;;;;;0.10;0.10;;;;;;;9.69;88.75;99484.72;4942313;28;20055;-69
2023/10/31 07:09:25;;;;;;;0.20;0.20;;;;;;;9.72;88.42;99486.91;4939763;28;20116;-70
2023/10/31 07:11:53;;;;;;;0.10;0.10;;;;;;;9.82;88.42;99490.69;4918705;29;20512;-69
2023/10/31 07:14:20;;;;;;;0.20;0.20;;;;;;;9.97;88.39;99489.84;5020167;28;20071;-69
2023/10/31 07:16:48;;;;;;;;;;;;;;;10.00;87.73;99502.94;4925541;29;20055;-70
2023/10/31 07:19:15;;;;;;;0.10;0.10;;;;;;;9.95;87.30;99506.50;4955533;28;19926;-69
2023/10/31 07:21:41;;;;;;;0.10;0.10;;;;;;;9.90;87.54;99511.97;4940048;28;20055;-70
2023/10/31 07:24:08;;;;;;;0.10;0.10;;;;;;;9.91;87.52;99516.34;4923844;29;20057;-70
2023/10/31 07:26:35;;;;;;;0.20;0.20;;;;;;;9.99;87.90;99520.41;4940473;28;20055;-70
2023/10/31 07:29:02;;;;;;;0.20;0.20;;;;;;;10.04;nan;99514.94;4938110;28;20440;-69
2023/10/31 07:31:30;;;;;;;0.10;0.10;;;;;;;10.11;87.14;99515.47;4942231;28;20169;-69
2023/10/31 07:33:56;;;;;;;0.20;0.20;;;;;;;10.07;86.86;99520.66;4953535;28;20043;-69
2023/10/31 07:36:23;;;;;;;0.10;0.10;;;;;;;10.08;86.73;99522.28;4925493;28;20074;-69
2023/10/31 07:38:49;;;;;;;0.10;0.10;;;;;;;10.11;86.84;99528.28;4942651;28;20105;-69
2023/10/31 07:41:15;;;;;;;0.20;0.20;;;;;;;10.17;87.00;99535.41;4944883;28;20217;-70
2023/10/31 07:43:42;;;;;;;0.17;0.17;;;;;;;10.14;86.72;99536.75;4959295;28;20057;-70
2023/10/31 07:46:08;;;;;;;0.20;0.20;;;;;;;10.18;86.96;99534.28;4956870;28;20307;-71
2023/10/31 07:48:36;;;;;;;0.20;0.20;;;;;;;10.23;86.46;99539.72;4940496;28;20050;-71
2023/10/31 07:51:03;;;;;;;0.20;0.20;;;;;;;10.32;86.42;99537.25;4953226;28;20054;-71
2023/10/31 07:53:32;;;;;;;0.20;0.20;;;;;;;10.64;85.97;99527.81;4944273;28;20699;-74
2023/10/31 07:55:59;;;;;;;0.20;0.20;;;;;;;10.98;84.45;99524.31;4918113;28;20051;-70
2023/10/31 07:58:28;;;;;;;0.20;0.20;;;;;;;11.16;83.56;99539.25;4943268;28;20055;-71
2023/10/31 08:00:56;;;;;;;0.20;0.20;;;;;;;11.27;82.54;99534.50;4959349;28;20047;-71
2023/10/31 08:03:25;;;;;;;0.20;0.20;;;;;;;11.28;82.35;99543.56;4928565;29;20058;-70
2023/10/31 08:05:56;;;;;;;0.20;0.20;;;;;;;11.23;82.47;99543.56;4924211;28;20054;-69
2023/10/31 08:08:22;;;;;;;0.20;0.20;;;;;;;11.33;82.82;99544.34;4927879;29;20526;-70
2023/10/31 08:10:50;;;;;;;0.30;0.30;;;;;;;11.96;80.51;99535.53;4941119;28;20149;-70
2023/10/31 08:13:17;;;;;;;0.30;0.30;;;;;;;12.75;76.91;99553.50;4936639;28;20509;-70
2023/10/31 08:15:43;;;;;;;0.20;0.20;;;;;;;13.14;74.99;99554.34;4928667;28;20197;-70
2023/10/31 08:18:11;;;;;;;0.20;0.20;;;;;;;12.78;74.95;99558.41;4938870;28;20050;-71
2023/10/31 08:20:38;;;;;;;0.20;0.20;;;;;;;12.42;76.35;99551.50;4936817;28;20449;-72
2023/10/31 08:23:05;;;;;;;0.20;0.20;;;;;;;12.07;78.14;99545.28;4939473;28;20540;-71
2023/10/31 08:25:33;;;;;;;0.10;0.10;;;;;;;11.82;79.07;99549.09;4945949;28;20037;-70
2023/10/31 08:28:03;;;;;;;0.20;0.20;;;;;;;11.53;80.28;99556.22;4909674;28;20074;-71
2023/10/31 08:30:30;;;;;;;0.20;0.20;;;;;;;11.40;81.31;99545.91;4940995;28;20121;-71
2023/10/31 08:32:56;;;;;;;0.20;0.20;;;;;;;11.40;81.80;99552.22;4942381;28;20422;-70
2023/10/31 08:35:23;;;;;;;0.20;0.20;;;;;;;11.44;81.81;99547.81;4947953;28;20130;-71
2023/10/31 08:37:49;;;;;;;0.20;0.20;;;;;;;11.54;81.79;99549.63;4931486;28;20039;-70
2023/10/31 08:40:17;;;;;;;0.20;0.20;;;;;;;11.72;81.35;99553.59;4943703;28;20035;-70
2023/10/31 08:42:44;;;;;;;0.20;0.20;;;;;;;11.91;79.78;99550.91;4941034;29;20073;-70
2023/10/31 08:45:10;;;;;;;0.25;0.25;;;;;;;12.16;79.15;99550.94;4938514;28;20094;-71
2023/10/31 08:47:38;;;;;;;0.30;0.30;;;;;;;12.78;76.85;99555.66;4940450;28;20055;-72
2023/10/31 08:50:11;;;;;;;0.20;0.20;;;;;;;12.71;75.23;99553.28;4923317;28;20050;-71
2023/10/31 08:52:37;;;;;;;0.20;0.20;;;;;;;12.31;76.15;99550.78;4934873;28;20059;-71
2023/10/31 08:55:04;;;;;;;0.30;0.30;;;;;;;11.87;76.95;99547.13;4940876;28;20043;-71
2023/10/31 08:57:33;;;;;;;0.20;0.20;;;;;;;11.63;78.18;99552.56;4927299;28;20042;-72
2023/10/31 09:00:00;;;;;;;0.20;0.20;;;;;;;11.34;78.55;99548.72;4938967;28;20051;-72
2023/10/31 09:02:26;;;;;;;0.20;0.20;;;;;;;11.18;79.11;99547.19;4935853;28;20051;-71
2023/10/31 09:04:53;;;;;;;0.20;0.20;;;;;;;11.03;79.37;99551.66;4931241;28;20097;-71
2023/10/31 09:07:21;;;;;;;0.20;0.20;;;;;;;10.95;79.56;99548.72;4936589;28;20414;-71
2023/10/31 09:09:48;;;;;;;0.10;0.10;;;;;;;10.97;79.93;99547.31;4937185;28;20563;-70
2023/10/31 09:12:14;;;;;;;0.20;0.20;;;;;;;11.06;80.12;99547.53;4936004;28;20502;-71
2023/10/31 09:14:42;;;;;;;0.20;0.20;;;;;;;11.14;79.80;99551.56;4937921;28;20047;-71
2023/10/31 09:17:08;;;;;;;0.20;0.20;;;;;;;11.17;78.14;99549.09;4940526;28;20047;-71
2023/10/31 09:19:34;;;;;;;0.20;0.20;;;;;;;11.10;78.67;99553.25;4937284;28;20500;-71
2023/10/31 09:22:01;;;;;;;0.20;0.20;;;;;;;11.08;78.73;99556.25;4955417;28;20221;-70
2023/10/31 09:24:27;;;;;;;0.20;0.20;;;;;;;11.07;78.67;99562.84;4937117;28;20544;-70
2023/10/31 09:26:54;;;;;;;0.20;0.20;;;;;;;10.95;78.79;99562.41;4939610;29;20055;-70
2023/10/31 09:29:21;;;;;;;0.20;0.20;;;;;;;10.83;78.98;99563.53;4939739;28;20063;-70
2023/10/31 09:31:50;;;;;;;0.10;0.10;;;;;;;10.75;78.74;99575.91;4953855;28;20671;-70
2023/10/31 09:34:18;;;;;;;0.20;0.20;;;;;;;10.90;78.70;99572.25;4938390;28;20059;-71
2023/10/31 09:36:44;;;;;;;0.20;0.20;;;;;;;11.17;77.47;99570.19;4936300;28;20110;-70
2023/10/31 09:39:11;;;;;;;0.20;0.20;;;;;;;11.32;76.05;99567.34;4946226;28;20483;-71
2023/10/31 09:41:37;;;;;;;0.20;0.20;;;;;;;11.58;74.97;99552.63;4943182;28;20762;-71
2023/10/31 09:44:04;;;;;;;0.20;0.20;;;;;;;11.63;74.50;99550.66;4923425;28;20082;-71
2023/10/31 09:46:31;;;;;;;0.20;0.20;;;;;;;11.77;74.94;99552.69;4942600;28;20132;-71
2023/10/31 09:48:59;;;;;;;0.20;0.20;;;;;;;11.78;75.49;99551.59;4943316;28;20051;-72
2023/10/31 09:51:27;;;;;;;0.20;0.20;;;;;;;11.96;75.08;99554.72;4939778;28;20055;-71
2023/10/31 09:53:55;;;;;;;0.20;0.20;;;;;;;12.07;74.98;99558.19;4940800;28;20521;-72
2023/10/31 09:56:22;;;;;;;;;;;;;;;12.01;75.17;99560.13;4940790;28;20134;-72
2023/10/31 09:58:48;;;;;;;0.20;0.20;;;;;;;12.01;75.26;99554.66;4935884;28;19957;-71
2023/10/31 10:01:15;;;;;;;0.20;0.20;;;;;;;11.97;75.26;99556.34;4940704;28;20701;-71
2023/10/31 10:03:43;;;;;;;0.30;0.30;;;;;;;12.11;75.71;99553.75;4938678;28;20051;-70
2023/10/31 10:06:12;;;;;;;0.30;0.30;;;;;;;12.91;73.57;99560.41;4917886;28;20055;-71
2023/10/31 10:08:40;;;;;;;0.20;0.20;;;;;;;13.69;69.63;99556.50;4930122;28;20047;-70
2023/10/31 10:11:07;;;;;;;0.30;0.30;;;;;;;13.58;69.39;99555.03;4932576;28;20047;-70
2023/10/31 10:13:35;;;;;;;0.20;0.20;;;;;;;13.37;69.07;99562.78;4930065;28;20120;-70
2023/10/31 10:16:02;;;;;;;0.20;0.20;;;;;;;13.10;70.61;99561.53;4928073;28;20816;-71
2023/10/31 10:18:30;;;;;;;0.20;0.20;;;;;;;12.96;71.36;99564.22;4931054;28;20522;-70
2023/10/31 10:20:59;;;;;;;0.20;0.20;;;;;;;12.73;71.87;99559.31;4927478;28;20035;-70
2023/10/31 10:23:27;;;;;;;0.20;0.20;;;;;;;12.51;71.96;99565.34;4936483;28;20043;-70
2023/10/31 10:25:56;;;;;;;0.20;0.20;;;;;;;12.41;72.81;99570.97;4921240;28;20044;-70
2023/10/31 10:28:24;;;;;;;0.20;0.20;;;;;;;12.28;72.35;99573.28;4946954;28;20466;-70
2023/10/31 10:30:51;;;;;;;0.40;0.40;;;;;;;12.40;72.47;99566.59;4918323;29;20058;-70
2023/10/31 10:33:18;;;;;;;0.30;0.30;;;;;;;12.95;70.41;99537.88;4939957;28;20162;-70
2023/10/31 10:35:44;;;;;;;0.20;0.20;;;;;;;13.21;69.53;99537.50;4905361;28;20136;-70
2023/10/31 10:38:14;;;;;;;0.20;0.20;;;;;;;13.03;69.37;99551.75;4932612;28;20059;-70
2023/10/31 10:40:43;;;;;;;0.20;0.20;;;;;;;13.00;69.72;99552.34;4938474;28;20468;-70
2023/10/31 10:43:13;;;;;;;0.20;0.20;;;;;;;13.04;69.69;99552.56;4942041;28;20043;-70
2023/10/31 10:45:43;;;;;;;0.30;0.30;;;;;;;13.10;69.55;99547.81;4948412;28;20043;-70
2023/10/31 10:48:15;;;;;;;0.20;0.20;;;;;;;12.98;69.29;99540.84;4926391;29;20047;-70
2023/10/31 10:50:45;;;;;;;0.20;0.20;;;;;;;12.71;70.41;99534.09;4940998;28;20039;-72
2023/10/31 10:53:21;;;;;;;0.20;0.20;;;;;;;12.43;70.79;99524.88;4937821;28;20054;-71
2023/10/31 10:55:52;;;;;;;0.20;0.20;;;;;;;12.22;72.38;99536.09;4935585;28;20044;-71
2023/10/31 10:58:24;;;;;;;0.20;0.20;;;;;;;12.26;72.28;99539.88;4938625;28;20054;-71
2023/10/31 11:00:53;;;;;;;0.20;0.20;;;;;;;12.23;72.10;99540.47;4942168;28;20047;-71
2023/10/31 11:03:21;;;;;;;0.20;0.20;;;;;;;12.24;72.17;99541.28;4943749;28;20039;-71
2023/10/31 11:05:48;;;;;;;0.20;0.20;;;;;;;12.25;72.32;99548.38;4945645;28;20047;-71
2023/10/31 11:08:15;;;;;;;0.20;0.20;;;;;;;12.31;72.49;99548.03;4941128;28;20047;-70
2023/10/31 11:10:43;;;;;;;0.20;0.20;;;;;;;12.41;71.78;99554.50;4941147;28;20059;-70
2023/10/31 11:13:11;;;;;;;0.20;0.20;;;;;;;12.43;71.32;99542.16;4940325;29;20054;-70
2023/10/31 11:15:39;;;;;;;0.20;0.20;;;;;;;12.33;71.28;99548.59;4944263;28;20062;-70
2023/10/31 11:18:06;;;;;;;0.30;0.30;;;;;;;12.09;72.33;99556.78;4943645;28;20051;-70
2023/10/31 11:20:34;;;;;;;0.20;0.20;;;;;;;12.13;72.15;99544.16;4948329;28;20047;-70
2023/10/31 11:23:06;;;;;;;0.30;0.30;;;;;;;12.25;72.37;99541.00;4940089;28;20104;-71
2023/10/31 11:25:33;;;;;;;0.20;0.20;;;;;;;12.46;72.03;99547.03;4944769;28;20391;-70
2023/10/31 11:28:13;;;;;;;0.30;0.30;;;;;;;12.89;70.95;99537.94;4937661;28;20193;-70
2023/10/31 11:30:40;;;;;;;0.30;0.30;;;;;;;13.52;69.06;99542.50;4942863;28;20506;-70
2023/10/31 11:33:10;;;;;;;0.28;0.28;;;;;;;13.53;68.63;99535.91;4936483;28;20521;-70
2023/10/31 11:35:39;;;;;;;0.30;0.30;;;;;;;13.58;68.62;99535.78;4941225;28;20557;-70
2023/10/31 11:38:08;;;;;;;0.50;0.50;;;;;;;14.09;67.99;99539.53;4944969;28;20059;-70
2023/10/31 11:40:35;;;;;;;0.30;0.30;;;;;;;14.80;65.36;99543.09;4946274;28;20083;-70